Time;durP1;ratioP1;P1;durP2;ratioP2;P2;SDS_P1;SDS_P2;PMS_P1;PMS_P2;Temp;Humidity;BMP_temperature;BMP_pressure;BME280_temperature;BME280_humidity;BME280_pressure;Samples;Min_cycle;Max_cycle;Signal;HPM_P1;HPM_P2
2023/08/12 00:00:23;;;;;;;12.95;3.13;;;;;;;;;;6117466;23;20433;-43
2023/08/12 00:02:51;;;;;;;11.60;2.72;;;;;;;;;;6129785;23;20120;-44
2023/08/12 00:05:19;;;;;;;12.07;2.72;;;;;;;;;;6118385;23;20045;-43
2023/08/12 00:07:46;;;;;;;13.73;3.35;;;;;;;;;;6130692;23;20022;-45
2023/08/12 00:10:14;;;;;;;11.70;3.00;;;;;;;;;;6113990;23;20018;-42
2023/08/12 00:12:42;;;;;;;13.27;2.55;;;;;;;;;;6128339;23;20462;-42
2023/08/12 00:15:10;;;;;;;15.98;2.97;;;;;;;;;;6122885;23;20032;-44
2023/08/12 00:17:41;;;;;;;14.85;3.28;;;;;;;;;;6127002;23;20017;-43
2023/08/12 00:20:10;;;;;;;12.15;2.70;;;;;;;;;;6114728;23;20565;-44
2023/08/12 00:22:39;;;;;;;15.23;2.50;;;;;;;;;;6127668;23;20044;-42
2023/08/12 00:25:07;;;;;;;13.80;2.80;;;;;;;;;;6123375;23;20045;-43
2023/08/12 00:27:35;;;;;;;13.00;2.80;;;;;;;;;;6128653;23;20433;-42
2023/08/12 00:30:03;;;;;;;12.05;3.08;;;;;;;;;;6121959;23;20013;-43
2023/08/12 00:32:30;;;;;;;15.02;3.30;;;;;;;;;;6147842;23;20051;-42
2023/08/12 00:35:00;;;;;;;13.57;3.20;;;;;;;;;;6110853;23;20014;-43
2023/08/12 00:37:27;;;;;;;14.73;2.72;;;;;;;;;;6120928;23;20028;-42
2023/08/12 00:39:55;;;;;;;14.30;3.53;;;;;;;;;;6121866;23;20444;-42
2023/08/12 00:42:23;;;;;;;13.65;2.72;;;;;;;;;;6127945;23;20475;-43
2023/08/12 00:44:55;;;;;;;15.20;3.30;;;;;;;;;;6129802;23;20023;-44
2023/08/12 00:47:22;;;;;;;11.97;3.40;;;;;;;;;;6126597;23;20093;-44
2023/08/12 00:49:51;;;;;;;14.18;2.65;;;;;;;;;;6125189;23;20432;-42
2023/08/12 00:52:20;;;;;;;17.00;2.83;;;;;;;;;;6134047;23;20248;-43
2023/08/12 00:54:48;;;;;;;14.38;2.80;;;;;;;;;;6123746;23;20441;-42
2023/08/12 00:57:16;;;;;;;14.10;3.25;;;;;;;;;;6116598;23;20032;-44
2023/08/12 00:59:44;;;;;;;13.07;2.40;;;;;;;;;;6127672;23;20013;-42
2023/08/12 01:02:12;;;;;;;13.38;2.63;;;;;;;;;;6121713;23;20014;-42
2023/08/12 01:04:41;;;;;;;15.50;3.50;;;;;;;;;;6128669;23;20021;-43
2023/08/12 01:07:08;;;;;;;20.02;3.03;;;;;;;;;;6120400;23;20017;-44
2023/08/12 01:09:39;;;;;;;14.32;3.28;;;;;;;;;;6124790;23;20021;-43
2023/08/12 01:12:10;;;;;;;14.60;2.97;;;;;;;;;;6115346;23;20185;-42
2023/08/12 01:14:42;;;;;;;17.92;3.47;;;;;;;;;;6127194;23;20022;-45
2023/08/12 01:17:10;;;;;;;15.93;3.85;;;;;;;;;;6119586;23;20216;-42
2023/08/12 01:19:38;;;;;;;17.35;2.97;;;;;;;;;;6149975;23;20025;-44
2023/08/12 01:22:08;;;;;;;17.75;4.05;;;;;;;;;;6125509;23;20068;-43
2023/08/12 01:24:38;;;;;;;14.63;3.23;;;;;;;;;;6118107;23;20024;-42
2023/08/12 01:27:06;;;;;;;14.05;2.90;;;;;;;;;;6118977;23;20021;-43
2023/08/12 01:29:39;;;;;;;14.90;3.75;;;;;;;;;;6125305;23;20032;-45
2023/08/12 01:32:10;;;;;;;25.15;4.22;;;;;;;;;;6128060;23;20022;-43
2023/08/12 01:34:42;;;;;;;18.73;3.33;;;;;;;;;;6120204;23;20088;-43
2023/08/12 01:37:11;;;;;;;16.27;3.10;;;;;;;;;;6126902;23;20124;-43
2023/08/12 01:39:43;;;;;;;14.70;3.90;;;;;;;;;;6118499;23;20424;-44
2023/08/12 01:42:12;;;;;;;15.80;2.95;;;;;;;;;;6128324;23;20021;-44
2023/08/12 01:44:40;;;;;;;15.38;3.25;;;;;;;;;;6118123;23;20097;-42
2023/08/12 01:47:09;;;;;;;16.73;3.63;;;;;;;;;;6148951;23;20417;-42
2023/08/12 01:49:37;;;;;;;20.30;3.60;;;;;;;;;;6124598;23;20097;-42
2023/08/12 01:52:05;;;;;;;13.68;3.20;;;;;;;;;;6126204;23;20026;-44
2023/08/12 01:54:34;;;;;;;15.85;3.00;;;;;;;;;;6130778;23;20879;-43
2023/08/12 01:57:05;;;;;;;19.83;3.90;;;;;;;;;;6122820;23;20100;-43
2023/08/12 01:59:33;;;;;;;11.77;3.22;;;;;;;;;;6133232;23;20014;-43
2023/08/12 02:02:00;;;;;;;24.67;4.30;;;;;;;;;;6121796;23;20436;-43
2023/08/12 02:04:28;;;;;;;20.90;4.20;;;;;;;;;;6135193;23;20028;-43
2023/08/12 02:06:56;;;;;;;18.10;3.13;;;;;;;;;;6122627;23;20025;-45
2023/08/12 02:09:24;;;;;;;25.42;3.47;;;;;;;;;;6135596;23;20447;-42
2023/08/12 02:11:53;;;;;;;19.90;3.35;;;;;;;;;;6108567;23;20017;-44
2023/08/12 02:14:24;;;;;;;16.80;3.37;;;;;;;;;;6131267;23;20013;-43
2023/08/12 02:16:52;;;;;;;20.65;2.88;;;;;;;;;;6105618;23;20464;-43
2023/08/12 02:19:19;;;;;;;21.67;3.55;;;;;;;;;;6156110;23;20029;-44
2023/08/12 02:21:47;;;;;;;18.85;3.40;;;;;;;;;;6120081;23;20022;-43
2023/08/12 02:24:15;;;;;;;19.00;3.45;;;;;;;;;;6125099;23;20096;-42
2023/08/12 02:26:42;;;;;;;17.97;4.13;;;;;;;;;;6135320;23;20100;-44
2023/08/12 02:29:10;;;;;;;17.33;3.90;;;;;;;;;;6120479;23;20022;-45
2023/08/12 02:31:39;;;;;;;14.20;3.17;;;;;;;;;;6135631;23;20028;-49
2023/08/12 02:34:07;;;;;;;17.67;3.20;;;;;;;;;;6128126;23;20090;-45
2023/08/12 02:36:35;;;;;;;16.27;4.30;;;;;;;;;;6130173;23;20061;-42
2023/08/12 02:39:02;;;;;;;14.43;2.77;;;;;;;;;;6100333;23;20249;-45
2023/08/12 02:41:30;;;;;;;20.73;3.50;;;;;;;;;;6136881;23;20017;-44
2023/08/12 02:43:58;;;;;;;21.77;3.33;;;;;;;;;;6125971;23;20017;-46
2023/08/12 02:46:26;;;;;;;20.17;3.83;;;;;;;;;;6128213;23;20013;-44
2023/08/12 02:48:55;;;;;;;16.58;3.13;;;;;;;;;;6130209;23;20811;-43
2023/08/12 02:51:22;;;;;;;20.53;3.70;;;;;;;;;;6132788;23;20021;-43
2023/08/12 02:53:50;;;;;;;17.02;3.55;;;;;;;;;;6125068;23;20350;-42
2023/08/12 02:56:18;;;;;;;16.15;3.40;;;;;;;;;;6113495;23;20024;-49
2023/08/12 02:58:47;;;;;;;16.80;3.65;;;;;;;;;;6129646;23;20360;-42
2023/08/12 03:01:15;;;;;;;23.50;4.28;;;;;;;;;;6136142;23;20014;-43
2023/08/12 03:03:43;;;;;;;20.07;3.80;;;;;;;;;;6151071;23;20218;-42
2023/08/12 03:06:12;;;;;;;15.40;3.10;;;;;;;;;;6136706;23;20014;-42
2023/08/12 03:08:40;;;;;;;23.52;4.00;;;;;;;;;;6111644;23;20415;-42
2023/08/12 03:11:08;;;;;;;16.40;3.83;;;;;;;;;;6134663;23;20029;-42
2023/08/12 03:13:35;;;;;;;18.35;3.80;;;;;;;;;;6129491;23;20105;-42
2023/08/12 03:16:03;;;;;;;21.30;3.30;;;;;;;;;;6129323;23;20009;-44
2023/08/12 03:18:32;;;;;;;23.92;4.55;;;;;;;;;;6129397;23;20018;-43
2023/08/12 03:20:59;;;;;;;15.00;3.85;;;;;;;;;;6162837;23;20025;-44
2023/08/12 03:23:28;;;;;;;17.88;3.40;;;;;;;;;;6151249;23;20722;-42
2023/08/12 03:25:56;;;;;;;18.67;3.83;;;;;;;;;;6138729;23;20028;-42
2023/08/12 03:28:24;;;;;;;17.57;3.43;;;;;;;;;;6126768;23;20025;-43
2023/08/12 03:30:52;;;;;;;17.35;3.25;;;;;;;;;;6132295;23;20263;-42
2023/08/12 03:33:20;;;;;;;16.67;3.35;;;;;;;;;;6132206;23;20013;-42
2023/08/12 03:35:48;;;;;;;15.60;3.08;;;;;;;;;;6130069;23;20448;-42
2023/08/12 03:38:16;;;;;;;19.70;3.83;;;;;;;;;;6106795;23;20029;-43
2023/08/12 03:41:03;;;;;;;16.47;2.80;;;;;;;;;;6132373;23;20022;-43
2023/08/12 03:43:31;;;;;;;19.85;3.17;;;;;;;;;;6122264;23;20055;-43
2023/08/12 03:45:58;;;;;;;21.58;3.70;;;;;;;;;;6138976;23;20027;-46
2023/08/12 03:48:26;;;;;;;24.70;3.70;;;;;;;;;;6110927;23;20100;-42
2023/08/12 03:50:54;;;;;;;14.40;3.50;;;;;;;;;;6135914;23;20467;-43
2023/08/12 03:53:21;;;;;;;17.23;3.20;;;;;;;;;;6110769;23;20013;-44
2023/08/12 03:55:49;;;;;;;12.95;3.50;;;;;;;;;;6136622;23;20021;-43
2023/08/12 03:58:18;;;;;;;18.77;3.40;;;;;;;;;;6130432;23;20021;-45
2023/08/12 04:00:46;;;;;;;18.30;3.47;;;;;;;;;;6122234;23;20023;-43
2023/08/12 04:03:14;;;;;;;16.75;4.00;;;;;;;;;;6124701;23;20041;-43
2023/08/12 04:05:48;;;;;;;16.43;3.23;;;;;;;;;;6135032;23;20040;-45
2023/08/12 04:08:16;;;;;;;19.48;3.45;;;;;;;;;;6129143;23;20024;-43
2023/08/12 04:10:45;;;;;;;18.25;3.78;;;;;;;;;;6132461;23;20093;-43
2023/08/12 04:13:12;;;;;;;15.90;3.90;;;;;;;;;;6131813;23;20044;-43
2023/08/12 04:15:42;;;;;;;18.17;3.60;;;;;;;;;;6123419;23;20013;-42
2023/08/12 04:18:11;;;;;;;18.10;3.90;;;;;;;;;;6127596;23;20026;-43
2023/08/12 04:20:39;;;;;;;23.45;3.67;;;;;;;;;;6130466;23;20025;-43
2023/08/12 04:23:08;;;;;;;19.67;3.55;;;;;;;;;;6130660;23;20047;-43
2023/08/12 04:25:36;;;;;;;18.50;3.20;;;;;;;;;;6160987;23;20021;-48
2023/08/12 04:28:04;;;;;;;20.23;3.33;;;;;;;;;;6130399;23;20429;-44
2023/08/12 04:30:32;;;;;;;24.13;4.90;;;;;;;;;;6122675;23;20017;-44
2023/08/12 04:33:01;;;;;;;19.92;4.18;;;;;;;;;;6133145;23;20018;-43
2023/08/12 04:35:31;;;;;;;17.77;3.50;;;;;;;;;;6121809;23;20091;-46
2023/08/12 04:37:59;;;;;;;16.20;3.65;;;;;;;;;;6128110;23;20035;-43
2023/08/12 04:40:29;;;;;;;18.35;3.78;;;;;;;;;;6133075;23;20420;-42
2023/08/12 04:42:57;;;;;;;18.63;4.57;;;;;;;;;;6122955;23;20014;-42
2023/08/12 04:45:25;;;;;;;17.65;4.78;;;;;;;;;;6139813;23;20053;-42
2023/08/12 04:47:53;;;;;;;17.85;4.00;;;;;;;;;;6147224;23;20032;-43
2023/08/12 04:50:23;;;;;;;20.73;4.05;;;;;;;;;;6128535;23;20021;-47
2023/08/12 04:52:50;;;;;;;19.45;4.47;;;;;;;;;;6114075;23;20484;-44
2023/08/12 04:55:18;;;;;;;17.73;3.37;;;;;;;;;;6132621;23;20017;-49
2023/08/12 04:57:46;;;;;;;21.40;4.13;;;;;;;;;;6117977;23;20093;-44
2023/08/12 05:00:14;;;;;;;20.20;4.80;;;;;;;;;;6131040;23;20052;-43
2023/08/12 05:02:47;;;;;;;18.23;3.78;;;;;;;;;;6123660;23;20040;-42
2023/08/12 05:05:15;;;;;;;15.63;4.32;;;;;;;;;;6130853;23;20031;-42
2023/08/12 05:07:48;;;;;;;12.37;3.63;;;;;;;;;;6116903;23;20049;-42
2023/08/12 05:10:16;;;;;;;19.52;4.63;;;;;;;;;;6126525;23;20436;-44
2023/08/12 05:12:44;;;;;;;22.83;4.40;;;;;;;;;;6141228;23;20441;-44
2023/08/12 05:15:11;;;;;;;25.45;4.95;;;;;;;;;;6128201;23;20021;-44
2023/08/12 05:17:39;;;;;;;20.27;4.53;;;;;;;;;;6141242;23;20271;-41
2023/08/12 05:20:09;;;;;;;22.57;4.40;;;;;;;;;;6127474;23;20021;-42
2023/08/12 05:22:36;;;;;;;18.83;4.22;;;;;;;;;;6128089;23;20502;-43
2023/08/12 05:25:06;;;;;;;19.58;3.95;;;;;;;;;;6120271;23;20483;-43
2023/08/12 05:27:34;;;;;;;18.52;3.88;;;;;;;;;;6127845;23;20014;-42
2023/08/12 05:30:03;;;;;;;20.45;4.28;;;;;;;;;;6118609;23;20355;-42
2023/08/12 05:32:30;;;;;;;12.87;2.97;;;;;;;;;;6119092;23;20025;-44
2023/08/12 05:34:58;;;;;;;15.70;4.00;;;;;;;;;;6123062;23;20021;-42
2023/08/12 05:37:26;;;;;;;15.30;3.85;;;;;;;;;;6122826;23;20021;-42
2023/08/12 05:39:53;;;;;;;19.45;4.10;;;;;;;;;;6116153;23;20100;-42
2023/08/12 05:42:22;;;;;;;26.55;4.32;;;;;;;;;;6126016;23;20025;-42
2023/08/12 05:44:50;;;;;;;17.93;3.93;;;;;;;;;;6120298;23;20127;-41
2023/08/12 05:47:18;;;;;;;18.52;4.50;;;;;;;;;;6131282;23;20024;-45
2023/08/12 05:49:48;;;;;;;21.63;4.25;;;;;;;;;;6127295;23;20321;-42
2023/08/12 05:52:15;;;;;;;22.63;4.18;;;;;;;;;;6112495;23;20018;-43
2023/08/12 05:54:44;;;;;;;22.13;4.53;;;;;;;;;;6128390;23;20441;-44
2023/08/12 05:57:15;;;;;;;19.97;3.70;;;;;;;;;;6118666;23;20353;-42
2023/08/12 05:59:44;;;;;;;23.70;3.85;;;;;;;;;;6126092;23;20084;-42
2023/08/12 06:02:12;;;;;;;26.27;4.03;;;;;;;;;;6123628;23;20225;-44
2023/08/12 06:04:40;;;;;;;19.25;3.78;;;;;;;;;;6127975;23;20476;-42
2023/08/12 06:07:08;;;;;;;19.52;3.88;;;;;;;;;;6114761;23;20025;-44
2023/08/12 06:09:35;;;;;;;23.40;3.53;;;;;;;;;;6126285;23;20040;-45
2023/08/12 06:12:03;;;;;;;14.93;3.40;;;;;;;;;;6118638;23;20018;-42
2023/08/12 06:14:31;;;;;;;18.88;4.15;;;;;;;;;;6138660;23;20026;-45
2023/08/12 06:17:00;;;;;;;23.60;3.95;;;;;;;;;;6125241;23;20028;-44
2023/08/12 06:19:28;;;;;;;20.33;3.40;;;;;;;;;;6119683;23;20026;-43
2023/08/12 06:21:56;;;;;;;21.30;4.00;;;;;;;;;;6125315;23;20027;-42
2023/08/12 06:24:23;;;;;;;22.98;3.85;;;;;;;;;;6132423;23;20345;-42
2023/08/12 06:26:52;;;;;;;14.13;3.45;;;;;;;;;;6122147;23;20598;-44
2023/08/12 06:29:20;;;;;;;23.58;3.55;;;;;;;;;;6125893;23;20017;-42
2023/08/12 06:31:47;;;;;;;15.55;3.28;;;;;;;;;;6123014;23;20020;-42
2023/08/12 06:34:17;;;;;;;21.07;4.40;;;;;;;;;;6120129;23;20480;-42
2023/08/12 06:36:45;;;;;;;21.02;3.25;;;;;;;;;;6125982;23;20045;-43
2023/08/12 06:39:13;;;;;;;19.05;3.63;;;;;;;;;;6128542;23;20346;-43
2023/08/12 06:41:42;;;;;;;21.30;4.30;;;;;;;;;;6129220;23;20028;-43
2023/08/12 06:44:11;;;;;;;11.35;3.42;;;;;;;;;;6118625;23;20380;-42
2023/08/12 06:46:39;;;;;;;19.20;3.90;;;;;;;;;;6125841;23;20041;-43
2023/08/12 06:49:07;;;;;;;21.85;3.72;;;;;;;;;;6122411;23;20101;-44
2023/08/12 06:51:36;;;;;;;19.65;3.70;;;;;;;;;;6128777;23;20476;-42
2023/08/12 06:54:04;;;;;;;19.30;3.70;;;;;;;;;;6119241;23;20013;-45
2023/08/12 06:56:32;;;;;;;18.23;3.08;;;;;;;;;;6125827;23;20021;-44
2023/08/12 06:59:00;;;;;;;14.63;3.87;;;;;;;;;;6122629;23;20234;-43
2023/08/12 07:01:27;;;;;;;20.30;3.78;;;;;;;;;;6122177;23;20036;-42
2023/08/12 07:03:56;;;;;;;15.45;3.55;;;;;;;;;;6125300;23;20048;-43
2023/08/12 07:06:24;;;;;;;19.35;3.38;;;;;;;;;;6128638;23;20068;-44
2023/08/12 07:08:55;;;;;;;24.13;4.00;;;;;;;;;;6128239;23;20100;-43
2023/08/12 07:11:23;;;;;;;22.77;3.70;;;;;;;;;;6130306;23;20024;-43
2023/08/12 07:13:51;;;;;;;21.25;3.42;;;;;;;;;;6114661;23;20112;-44
2023/08/12 07:16:19;;;;;;;15.57;3.13;;;;;;;;;;6125942;23;20040;-45
2023/08/12 07:18:47;;;;;;;23.00;4.30;;;;;;;;;;6119848;23;20541;-45
2023/08/12 07:21:14;;;;;;;20.83;3.10;;;;;;;;;;6135973;23;20064;-43
2023/08/12 07:23:42;;;;;;;18.80;2.80;;;;;;;;;;6110263;23;20026;-43
2023/08/12 07:26:22;;;;;;;23.67;4.05;;;;;;;;;;6128856;23;20182;-43
2023/08/12 07:28:53;;;;;;;18.13;3.38;;;;;;;;;;6123456;23;20026;-44
2023/08/12 07:31:22;;;;;;;18.25;3.28;;;;;;;;;;6114855;23;20028;-47
2023/08/12 07:33:50;;;;;;;14.23;2.53;;;;;;;;;;6123123;23;20018;-43
2023/08/12 07:36:17;;;;;;;19.23;3.30;;;;;;;;;;6108671;23;20013;-43
2023/08/12 07:38:45;;;;;;;17.88;3.35;;;;;;;;;;6127500;23;20378;-44
2023/08/12 07:41:13;;;;;;;16.90;3.13;;;;;;;;;;6117483;23;20448;-44
2023/08/12 07:43:42;;;;;;;28.55;4.15;;;;;;;;;;6125729;23;20097;-44
2023/08/12 07:46:09;;;;;;;18.08;3.15;;;;;;;;;;6119391;23;20481;-43
2023/08/12 07:48:38;;;;;;;19.60;3.00;;;;;;;;;;6130005;23;20025;-42
2023/08/12 07:51:05;;;;;;;13.25;3.15;;;;;;;;;;6122688;23;20022;-44
2023/08/12 07:53:33;;;;;;;20.63;2.92;;;;;;;;;;6132008;23;20464;-42
2023/08/12 07:56:01;;;;;;;20.90;3.60;;;;;;;;;;6115987;23;20447;-42
2023/08/12 07:58:28;;;;;;;19.02;3.28;;;;;;;;;;6128062;23;20021;-43
2023/08/12 08:00:58;;;;;;;22.37;3.47;;;;;;;;;;6107928;23;20018;-42
2023/08/12 08:03:26;;;;;;;17.58;2.88;;;;;;;;;;6118188;23;20022;-45
2023/08/12 08:05:53;;;;;;;18.00;3.65;;;;;;;;;;6122806;23;20258;-42
2023/08/12 08:08:21;;;;;;;18.92;3.15;;;;;;;;;;6124669;23;20014;-43
2023/08/12 08:10:49;;;;;;;14.95;2.58;;;;;;;;;;6120847;23;20084;-42
2023/08/12 08:13:17;;;;;;;14.47;2.30;;;;;;;;;;6125879;23;20056;-43
2023/08/12 08:15:44;;;;;;;11.25;2.40;;;;;;;;;;6113859;23;21055;-42
2023/08/12 08:18:13;;;;;;;14.45;2.35;;;;;;;;;;6128756;23;20463;-42
2023/08/12 08:20:42;;;;;;;12.68;2.20;;;;;;;;;;6125467;23;20017;-44
2023/08/12 08:23:13;;;;;;;13.35;2.25;;;;;;;;;;6117177;23;20080;-43
2023/08/12 08:25:41;;;;;;;16.77;2.30;;;;;;;;;;6126487;23;20021;-44
2023/08/12 08:28:09;;;;;;;13.70;2.55;;;;;;;;;;6116088;23;20434;-44
2023/08/12 08:30:37;;;;;;;12.35;2.53;;;;;;;;;;6129032;23;20033;-43
2023/08/12 08:33:06;;;;;;;18.15;3.05;;;;;;;;;;6120728;23;20041;-42
2023/08/12 08:35:35;;;;;;;14.45;2.97;;;;;;;;;;6124510;23;20014;-42
2023/08/12 08:38:03;;;;;;;14.97;2.50;;;;;;;;;;6115893;23;20332;-43
2023/08/12 08:40:31;;;;;;;10.32;2.30;;;;;;;;;;6129628;23;20356;-43
2023/08/12 08:43:01;;;;;;;15.40;3.03;;;;;;;;;;6117739;23;20021;-48
2023/08/12 08:45:30;;;;;;;11.15;2.28;;;;;;;;;;6125660;23;20041;-43
2023/08/12 08:47:57;;;;;;;13.95;2.78;;;;;;;;;;6122731;23;20028;-43
2023/08/12 08:50:26;;;;;;;13.53;2.30;;;;;;;;;;6130779;23;20072;-42
2023/08/12 08:52:56;;;;;;;15.18;3.05;;;;;;;;;;6115550;23;20060;-44
2023/08/12 08:55:26;;;;;;;10.25;1.65;;;;;;;;;;6131476;23;20021;-43
2023/08/12 08:57:54;;;;;;;11.40;2.28;;;;;;;;;;6122845;23;20032;-42
2023/08/12 09:00:29;;;;;;;13.05;1.73;;;;;;;;;;6115221;23;20178;-43
2023/08/12 09:02:58;;;;;;;10.20;1.80;;;;;;;;;;6126642;23;20013;-43
2023/08/12 09:05:26;;;;;;;9.68;1.50;;;;;;;;;;6129154;23;20120;-45
2023/08/12 09:07:56;;;;;;;9.55;1.77;;;;;;;;;;6119618;23;20017;-44
2023/08/12 09:10:25;;;;;;;14.15;2.35;;;;;;;;;;6130895;23;20519;-42
2023/08/12 09:12:56;;;;;;;10.77;2.10;;;;;;;;;;6121028;23;20435;-43
2023/08/12 09:15:28;;;;;;;9.27;2.00;;;;;;;;;;6112029;23;20084;-44
2023/08/12 09:17:56;;;;;;;8.52;1.70;;;;;;;;;;6149035;23;20028;-43
2023/08/12 09:20:25;;;;;;;14.52;1.80;;;;;;;;;;6128535;23;20017;-43
2023/08/12 09:22:58;;;;;;;10.82;1.50;;;;;;;;;;6129128;23;20049;-44
2023/08/12 09:25:26;;;;;;;11.13;2.05;;;;;;;;;;6117622;23;20467;-44
2023/08/12 09:27:54;;;;;;;12.93;1.80;;;;;;;;;;6126671;23;20020;-42
2023/08/12 09:30:25;;;;;;;9.75;2.05;;;;;;;;;;6128582;23;20021;-42
2023/08/12 09:32:58;;;;;;;9.43;1.45;;;;;;;;;;6118661;23;20045;-41
2023/08/12 09:35:31;;;;;;;9.85;2.33;;;;;;;;;;6129277;23;20065;-42
2023/08/12 09:38:05;;;;;;;11.63;2.10;;;;;;;;;;6126569;23;20017;-45
2023/08/12 09:40:33;;;;;;;11.93;2.00;;;;;;;;;;6118789;23;20548;-42
2023/08/12 09:43:01;;;;;;;7.05;1.60;;;;;;;;;;6123900;23;20022;-42
2023/08/12 09:45:31;;;;;;;10.65;2.00;;;;;;;;;;6125093;23;20444;-42
2023/08/12 09:47:59;;;;;;;6.82;1.48;;;;;;;;;;6119462;23;20021;-43
2023/08/12 09:50:27;;;;;;;10.43;2.00;;;;;;;;;;6130598;23;20028;-42
2023/08/12 09:52:55;;;;;;;7.70;1.43;;;;;;;;;;6117830;23;20018;-43
2023/08/12 09:55:26;;;;;;;8.40;1.80;;;;;;;;;;6128580;23;20022;-42
2023/08/12 09:57:57;;;;;;;9.75;1.70;;;;;;;;;;6129045;23;20018;-43
2023/08/12 10:00:25;;;;;;;6.82;1.48;;;;;;;;;;6122966;23;20013;-42
2023/08/12 10:02:53;;;;;;;8.57;1.70;;;;;;;;;;6124179;23;20703;-43
2023/08/12 10:05:22;;;;;;;9.10;1.60;;;;;;;;;;6123168;23;20018;-42
2023/08/12 10:07:51;;;;;;;12.35;1.75;;;;;;;;;;6146704;23;20059;-42
2023/08/12 10:10:19;;;;;;;6.85;1.60;;;;;;;;;;6122159;23;20084;-43
2023/08/12 10:12:48;;;;;;;7.35;1.95;;;;;;;;;;6124261;23;20105;-43
2023/08/12 10:15:16;;;;;;;6.78;1.20;;;;;;;;;;6124932;23;20097;-42
2023/08/12 10:17:44;;;;;;;6.70;1.40;;;;;;;;;;6109369;23;20462;-42
2023/08/12 10:20:14;;;;;;;7.18;1.60;;;;;;;;;;6122968;23;20614;-42
2023/08/12 10:22:43;;;;;;;6.45;1.20;;;;;;;;;;6126124;23;20746;-42
2023/08/12 10:25:14;;;;;;;7.68;0.90;;;;;;;;;;6120307;23;20013;-42
2023/08/12 10:27:42;;;;;;;6.32;1.50;;;;;;;;;;6122597;23;20068;-42
2023/08/12 10:30:13;;;;;;;8.23;1.57;;;;;;;;;;6117117;23;20436;-44
2023/08/12 10:32:41;;;;;;;7.80;1.48;;;;;;;;;;6120876;23;20021;-42
2023/08/12 10:35:09;;;;;;;8.80;1.75;;;;;;;;;;6121817;23;20017;-43
2023/08/12 10:37:39;;;;;;;11.40;1.83;;;;;;;;;;6121165;23;20017;-42
2023/08/12 10:40:21;;;;;;;7.70;1.88;;;;;;;;;;6125579;23;20357;-43
2023/08/12 10:42:49;;;;;;;6.40;1.20;;;;;;;;;;6120904;23;20021;-43
2023/08/12 10:45:20;;;;;;;8.80;1.70;;;;;;;;;;6128115;23;20018;-43
2023/08/12 10:47:49;;;;;;;10.57;1.60;;;;;;;;;;6121302;23;20040;-43
2023/08/12 10:50:18;;;;;;;10.75;2.28;;;;;;;;;;6139383;23;20021;-42
2023/08/12 10:52:46;;;;;;;8.95;1.70;;;;;;;;;;6116656;23;20370;-44
2023/08/12 10:55:17;;;;;;;7.37;1.40;;;;;;;;;;6122731;23;20021;-44
2023/08/12 10:57:45;;;;;;;9.00;1.60;;;;;;;;;;6118307;23;20018;-42
2023/08/12 11:00:17;;;;;;;9.90;1.63;;;;;;;;;;6127254;23;20389;-44
2023/08/12 11:02:47;;;;;;;10.80;2.10;;;;;;;;;;6121993;23;20270;-45
2023/08/12 11:05:15;;;;;;;10.38;2.00;;;;;;;;;;6116964;23;20337;-44
2023/08/12 11:07:43;;;;;;;8.50;1.73;;;;;;;;;;6125386;23;20017;-45
2023/08/12 11:10:12;;;;;;;12.35;2.65;;;;;;;;;;6117516;23;20014;-45
2023/08/12 11:12:41;;;;;;;10.57;2.17;;;;;;;;;;6125136;23;20025;-47
2023/08/12 11:15:10;;;;;;;12.27;2.38;;;;;;;;;;6121271;23;20037;-44
2023/08/12 11:17:39;;;;;;;9.48;1.80;;;;;;;;;;6117010;23;20029;-41
2023/08/12 11:20:10;;;;;;;9.50;1.80;;;;;;;;;;6125940;23;20025;-43
2023/08/12 11:22:38;;;;;;;9.52;2.33;;;;;;;;;;6147736;23;20594;-42
2023/08/12 11:25:08;;;;;;;10.10;2.20;;;;;;;;;;6120060;23;20021;-44
2023/08/12 11:27:37;;;;;;;8.38;1.73;;;;;;;;;;6121223;23;20033;-42
2023/08/12 11:30:06;;;;;;;13.18;1.70;;;;;;;;;;6120059;23;20017;-42
2023/08/12 11:32:36;;;;;;;7.70;1.50;;;;;;;;;;6119971;23;20021;-42
2023/08/12 11:35:06;;;;;;;8.30;1.73;;;;;;;;;;6124013;23;20104;-42
2023/08/12 11:37:37;;;;;;;10.02;1.88;;;;;;;;;;6119317;23;20025;-41
2023/08/12 11:40:08;;;;;;;10.18;1.88;;;;;;;;;;6119058;23;20229;-40
2023/08/12 11:42:36;;;;;;;7.57;1.67;;;;;;;;;;6113362;23;20124;-44
2023/08/12 11:45:04;;;;;;;7.03;1.93;;;;;;;;;;6128208;23;20109;-44
2023/08/12 11:47:32;;;;;;;7.78;1.35;;;;;;;;;;6113954;23;20022;-45
2023/08/12 11:50:02;;;;;;;10.48;1.70;;;;;;;;;;6130595;23;20013;-44
2023/08/12 11:52:30;;;;;;;8.48;1.85;;;;;;;;;;6123182;23;20025;-45
2023/08/12 11:54:59;;;;;;;9.05;1.90;;;;;;;;;;6129658;23;20040;-45
2023/08/12 11:57:27;;;;;;;9.67;1.60;;;;;;;;;;6121323;23;20348;-43
2023/08/12 11:59:59;;;;;;;8.05;1.52;;;;;;;;;;6122165;23;20024;-44
2023/08/12 12:02:29;;;;;;;9.00;1.50;;;;;;;;;;6121024;23;20030;-44
2023/08/12 12:04:57;;;;;;;13.35;2.30;;;;;;;;;;6127521;23;20495;-46
2023/08/12 12:07:26;;;;;;;8.15;1.73;;;;;;;;;;6121229;23;20068;-45
2023/08/12 12:09:54;;;;;;;7.33;1.33;;;;;;;;;;6114226;23;20017;-45
2023/08/12 12:12:25;;;;;;;7.13;1.40;;;;;;;;;;6124435;23;20022;-47
2023/08/12 12:14:54;;;;;;;9.95;1.75;;;;;;;;;;6118012;23;20065;-44
2023/08/12 12:17:39;;;;;;;9.85;2.00;;;;;;;;;;6111243;23;20025;-44
2023/08/12 12:20:10;;;;;;;8.70;1.90;;;;;;;;;;6106833;23;20017;-46
2023/08/12 12:22:38;;;;;;;9.93;2.00;;;;;;;;;;6127163;23;20523;-45
2023/08/12 12:25:07;;;;;;;8.77;1.98;;;;;;;;;;6142830;23;20325;-45
2023/08/12 12:27:38;;;;;;;9.13;2.10;;;;;;;;;;6130217;23;20025;-44
2023/08/12 12:30:07;;;;;;;11.15;2.42;;;;;;;;;;6122050;23;20432;-45
2023/08/12 12:32:34;;;;;;;9.57;2.20;;;;;;;;;;6124958;23;20021;-44
2023/08/12 12:35:03;;;;;;;13.30;1.67;;;;;;;;;;6122787;23;20088;-44
2023/08/12 12:37:30;;;;;;;12.10;2.03;;;;;;;;;;6122748;23;20018;-44
2023/08/12 12:39:58;;;;;;;8.45;1.98;;;;;;;;;;6123110;23;20018;-44
2023/08/12 12:42:26;;;;;;;9.50;1.75;;;;;;;;;;6124618;23;20044;-45
2023/08/12 12:44:55;;;;;;;5.97;1.35;;;;;;;;;;6122311;23;20028;-44
2023/08/12 12:47:23;;;;;;;16.53;2.80;;;;;;;;;;6147473;23;20018;-43
2023/08/12 12:49:55;;;;;;;7.18;1.30;;;;;;;;;;6128462;23;20064;-43
2023/08/12 12:52:22;;;;;;;8.98;1.45;;;;;;;;;;6111092;23;20014;-46
2023/08/12 12:54:50;;;;;;;11.82;1.65;;;;;;;;;;6143989;23;20235;-45
2023/08/12 12:57:18;;;;;;;7.50;1.48;;;;;;;;;;6122221;23;20013;-46
2023/08/12 12:59:45;;;;;;;7.83;1.40;;;;;;;;;;6128466;23;20480;-45
2023/08/12 13:02:14;;;;;;;9.27;2.15;;;;;;;;;;6122393;23;20017;-45
2023/08/12 13:04:44;;;;;;;10.98;1.80;;;;;;;;;;6121939;23;20389;-45
2023/08/12 13:07:12;;;;;;;11.30;2.13;;;;;;;;;;6120858;23;20024;-44
2023/08/12 13:09:44;;;;;;;16.45;2.28;;;;;;;;;;6128876;23;20025;-44
2023/08/12 13:12:12;;;;;;;14.37;2.47;;;;;;;;;;6154048;23;20064;-44
2023/08/12 13:14:40;;;;;;;10.60;1.70;;;;;;;;;;6122294;23;20025;-45
2023/08/12 13:17:07;;;;;;;14.18;2.47;;;;;;;;;;6125545;23;20018;-48
2023/08/12 13:19:37;;;;;;;11.35;2.00;;;;;;;;;;6115633;23;20044;-46
2023/08/12 13:22:04;;;;;;;11.43;2.25;;;;;;;;;;6128645;23;20544;-44
2023/08/12 13:24:32;;;;;;;14.23;2.57;;;;;;;;;;6126630;23;20060;-46
2023/08/12 13:27:01;;;;;;;15.68;2.58;;;;;;;;;;6123729;23;20024;-49
2023/08/12 13:29:30;;;;;;;15.07;3.08;;;;;;;;;;6123440;23;20037;-45
2023/08/12 13:31:57;;;;;;;18.42;3.10;;;;;;;;;;6121591;23;20033;-46
2023/08/12 13:34:26;;;;;;;13.68;2.47;;;;;;;;;;6122093;23;20301;-46
2023/08/12 13:36:55;;;;;;;15.10;3.13;;;;;;;;;;6122271;23;20044;-48
2023/08/12 13:39:22;;;;;;;14.18;2.80;;;;;;;;;;6119464;23;20028;-45
2023/08/12 13:41:50;;;;;;;15.02;2.88;;;;;;;;;;6129180;23;20044;-47
2023/08/12 13:44:18;;;;;;;18.55;3.65;;;;;;;;;;6117394;23;20028;-48
2023/08/12 13:46:46;;;;;;;16.85;2.97;;;;;;;;;;6129612;23;20018;-45
2023/08/12 13:49:14;;;;;;;16.73;3.10;;;;;;;;;;6114440;23;20479;-46
2023/08/12 13:51:41;;;;;;;14.50;2.63;;;;;;;;;;6125414;23;20017;-46
2023/08/12 13:54:10;;;;;;;12.90;2.90;;;;;;;;;;6122792;23;20024;-44
2023/08/12 13:56:39;;;;;;;12.70;2.90;;;;;;;;;;6124359;23;20132;-45
2023/08/12 13:59:06;;;;;;;11.32;2.00;;;;;;;;;;6113609;23;20354;-47
2023/08/12 14:01:34;;;;;;;10.97;2.23;;;;;;;;;;6119922;23;20372;-44
2023/08/12 14:04:02;;;;;;;14.25;2.22;;;;;;;;;;6113072;23;20025;-46
2023/08/12 14:06:30;;;;;;;11.70;2.22;;;;;;;;;;6112231;23;20017;-44
2023/08/12 14:08:58;;;;;;;8.52;1.60;;;;;;;;;;6120280;23;20096;-44
2023/08/12 14:11:27;;;;;;;9.48;1.65;;;;;;;;;;6117775;23;20028;-45
2023/08/12 14:13:55;;;;;;;10.60;1.63;;;;;;;;;;6124556;23;20018;-46
2023/08/12 14:16:22;;;;;;;7.50;1.35;;;;;;;;;;6111258;23;20025;-46
2023/08/12 14:18:50;;;;;;;6.55;1.20;;;;;;;;;;6127493;23;20045;-44
2023/08/12 14:21:20;;;;;;;6.10;1.33;;;;;;;;;;6120166;23;20009;-45
2023/08/12 14:23:47;;;;;;;6.38;1.23;;;;;;;;;;6108569;23;20033;-45
2023/08/12 14:26:15;;;;;;;10.50;1.70;;;;;;;;;;6127966;23;20017;-45
2023/08/12 14:28:44;;;;;;;7.25;1.42;;;;;;;;;;6113837;23;20442;-44
2023/08/12 14:31:14;;;;;;;9.43;1.55;;;;;;;;;;6121512;23;20025;-44
2023/08/12 14:33:43;;;;;;;7.43;1.55;;;;;;;;;;6123669;23;20459;-44
2023/08/12 14:36:10;;;;;;;4.68;1.17;;;;;;;;;;6115109;23;20014;-46
2023/08/12 14:38:38;;;;;;;5.90;1.20;;;;;;;;;;6127370;23;20026;-44
2023/08/12 14:41:06;;;;;;;6.15;1.40;;;;;;;;;;6136941;23;20021;-46